This demonstration page uses our WeatherBlox Daily Observations layout. Learn more.

Left ArrowRight Arrow

Hourly Observations for May 12, 2021

Temp ( °F °C ) Dew Point ( °F °C ) Humidity (%) Winds ( mph kmh ) Pressure ( in mb ) Visibility ( mi km ) Precip ( " mm )
12:53 am 00:53 Cloudy with Light Rain 46 7.8 39 3.9 77 77 WSW 7 11 30.16 1021 10 16.0934 0.001 0.001
1:53 am 01:53 Partly Cloudy with Light Rain 42 5.6 38 3.3 85 85 SW 9 15 30.18 1022 10 16.0934 0.001 0.001
2:53 am 02:53 Partly Cloudy with Light Rain 41 5 37 2.8 86 86 SW 9 15 30.17 1022 10 16.0934 0.001 0.001
3:53 am 03:53 Clear 41 5 36 2.2 82 82 SW 10 17 30.17 1022 10 16.0934 0.001 0.001
4:53 am 04:53 Clear 38 3.3 35 1.7 89 89 WSW 10 17 30.18 1022 10 16.0934 N/A
5:53 am 05:53 Sunny 38 3.3 36 2.2 93 93 SSW 10 17 30.2 1023 10 16.0934 N/A
6:53 am 06:53 Sunny 43 6.1 39 3.9 86 86 SW 10 17 30.19 1023 10 16.0934 N/A
7:53 am 07:53 Mostly Cloudy 48 8.9 41 5 77 77 SW 14 22 30.2 1023 10 16.0934 N/A
8:53 am 08:53 Cloudy 49 9.4 41 5 74 74 SW 13 20 30.2 1023 10 16.0934 N/A
9:53 am 09:53 Sunny 53 11.7 41 5 64 64 SW 13 20 30.2 1023 10 16.0934 N/A
10:53 am 10:53 Sunny 58 14.4 40 4.4 51 51 WNW 8 13 30.19 1022 10 16.0934 N/A
11:53 am 11:53 Sunny 60 15.6 38 3.3 44 44 undefined N/A 30.19 1022 10 16.0934 N/A
12:53 pm 12:53 Mostly Cloudy 60 15.6 36 2.2 41 41 undefined N/A 30.16 1022 10 16.0934 N/A
1:53 pm 13:53 Mostly Sunny 63 17.2 35 1.7 35 35 WNW 10 17 30.15 1021 10 16.0934 N/A
2:53 pm 14:53 Partly Cloudy 65 18.3 34 1.1 32 32 WNW 6 9 30.14 1021 10 16.0934 N/A
3:53 pm 15:53 Sunny 63 17.2 32 undefined 31 31 WNW 6 9 30.14 1021 10 16.0934 N/A
4:53 pm 16:53 Partly Cloudy 66 18.9 33 0.6 29 29 N N/A 30.11 1020 10 16.0934 N/A
5:53 pm 17:53 Partly Cloudy 66 18.9 31 -0.6 27 27 W 7 11 30.11 1020 10 16.0934 N/A
6:53 pm 18:53 Sunny 64 17.8 30 -1.1 28 28 W 3 6 30.09 1019 10 16.0934 N/A
7:53 pm 19:53 Sunny 61 16.1 34 1.1 36 36 S 6 9 30.09 1019 10 16.0934 N/A
8:53 pm 20:53 Clear 53 11.7 37 2.8 55 55 S 8 13 30.11 1020 10 16.0934 N/A
9:53 pm 21:53 Clear 50 10 37 2.8 61 61 SSE 9 15 30.11 1020 10 16.0934 N/A
10:53 pm 22:53 Clear 50 10 36 2.2 59 59 E 9 15 30.1 1019 10 16.0934 N/A
11:53 pm 23:53 Clear 49 9.4 35 1.7 59 59 S 12 19 30.08 1019 10 16.0934 N/A

Powered by AerisWeather